sensor_id;sensor_type;location;lat;lon;timestamp;P1;durP1;ratioP1;P2;durP2;ratioP2
58414;SDS011;44210;42.706;18.344;2023-03-21T00:00:11;19.33;;;17.23;;
58414;SDS011;44210;42.706;18.344;2023-03-21T00:02:38;18.30;;;16.35;;
58414;SDS011;44210;42.706;18.344;2023-03-21T00:05:04;21.30;;;17.90;;
58414;SDS011;44210;42.706;18.344;2023-03-21T00:07:30;22.50;;;16.48;;
58414;SDS011;44210;42.706;18.344;2023-03-21T00:09:56;20.85;;;17.55;;
58414;SDS011;44210;42.706;18.344;2023-03-21T00:12:22;19.40;;;17.40;;
58414;SDS011;44210;42.706;18.344;2023-03-21T00:14:48;19.48;;;16.83;;
58414;SDS011;44210;42.706;18.344;2023-03-21T00:17:14;21.70;;;16.23;;
58414;SDS011;44210;42.706;18.344;2023-03-21T00:19:40;17.55;;;15.75;;
58414;SDS011;44210;42.706;18.344;2023-03-21T00:22:08;20.00;;;16.55;;
58414;SDS011;44210;42.706;18.344;2023-03-21T00:24:34;23.63;;;18.23;;
58414;SDS011;44210;42.706;18.344;2023-03-21T00:27:01;20.83;;;17.13;;
58414;SDS011;44210;42.706;18.344;2023-03-21T00:29:27;23.80;;;18.55;;
58414;SDS011;44210;42.706;18.344;2023-03-21T00:31:53;20.48;;;17.27;;
58414;SDS011;44210;42.706;18.344;2023-03-21T00:34:19;18.38;;;16.42;;
58414;SDS011;44210;42.706;18.344;2023-03-21T00:36:45;23.42;;;18.23;;
58414;SDS011;44210;42.706;18.344;2023-03-21T00:39:11;21.67;;;18.35;;
58414;SDS011;44210;42.706;18.344;2023-03-21T00:41:42;27.90;;;19.23;;
58414;SDS011;44210;42.706;18.344;2023-03-21T00:44:09;21.00;;;18.05;;
58414;SDS011;44210;42.706;18.344;2023-03-21T00:46:37;20.60;;;17.73;;
58414;SDS011;44210;42.706;18.344;2023-03-21T00:49:03;20.23;;;18.08;;
58414;SDS011;44210;42.706;18.344;2023-03-21T00:51:29;21.23;;;17.48;;
58414;SDS011;44210;42.706;18.344;2023-03-21T00:53:57;22.50;;;17.77;;
58414;SDS011;44210;42.706;18.344;2023-03-21T00:56:23;21.25;;;18.48;;
58414;SDS011;44210;42.706;18.344;2023-03-21T00:58:49;21.92;;;17.83;;
58414;SDS011;44210;42.706;18.344;2023-03-21T01:01:15;25.05;;;18.85;;
58414;SDS011;44210;42.706;18.344;2023-03-21T01:03:42;20.63;;;17.75;;
58414;SDS011;44210;42.706;18.344;2023-03-21T01:06:15;20.38;;;18.20;;
58414;SDS011;44210;42.706;18.344;2023-03-21T01:08:44;21.85;;;19.50;;
58414;SDS011;44210;42.706;18.344;2023-03-21T01:11:12;23.05;;;17.73;;
58414;SDS011;44210;42.706;18.344;2023-03-21T01:13:38;20.48;;;17.02;;
58414;SDS011;44210;42.706;18.344;2023-03-21T01:16:05;20.23;;;17.77;;
58414;SDS011;44210;42.706;18.344;2023-03-21T01:18:32;20.65;;;16.80;;
58414;SDS011;44210;42.706;18.344;2023-03-21T01:20:59;22.10;;;16.20;;
58414;SDS011;44210;42.706;18.344;2023-03-21T01:23:26;17.85;;;14.93;;
58414;SDS011;44210;42.706;18.344;2023-03-21T01:25:53;18.17;;;15.18;;
58414;SDS011;44210;42.706;18.344;2023-03-21T01:28:20;24.15;;;16.73;;
58414;SDS011;44210;42.706;18.344;2023-03-21T01:30:47;19.30;;;17.30;;
58414;SDS011;44210;42.706;18.344;2023-03-21T01:33:14;20.90;;;15.88;;
58414;SDS011;44210;42.706;18.344;2023-03-21T01:35:40;17.27;;;14.55;;
58414;SDS011;44210;42.706;18.344;2023-03-21T01:38:06;19.73;;;15.90;;
58414;SDS011;44210;42.706;18.344;2023-03-21T01:40:34;17.95;;;16.15;;
58414;SDS011;44210;42.706;18.344;2023-03-21T01:43:00;19.55;;;16.65;;
58414;SDS011;44210;42.706;18.344;2023-03-21T01:48:11;21.98;;;17.40;;
58414;SDS011;44210;42.706;18.344;2023-03-21T01:50:38;19.67;;;15.95;;
58414;SDS011;44210;42.706;18.344;2023-03-21T01:53:05;17.60;;;15.20;;
58414;SDS011;44210;42.706;18.344;2023-03-21T01:55:31;18.05;;;15.93;;
58414;SDS011;44210;42.706;18.344;2023-03-21T01:57:57;18.80;;;16.05;;
58414;SDS011;44210;42.706;18.344;2023-03-21T02:00:25;18.40;;;16.33;;
58414;SDS011;44210;42.706;18.344;2023-03-21T02:02:53;19.50;;;16.60;;
58414;SDS011;44210;42.706;18.344;2023-03-21T02:05:43;19.08;;;15.93;;
58414;SDS011;44210;42.706;18.344;2023-03-21T02:08:10;18.05;;;16.15;;
58414;SDS011;44210;42.706;18.344;2023-03-21T02:10:38;19.50;;;15.57;;
58414;SDS011;44210;42.706;18.344;2023-03-21T02:13:04;19.17;;;15.55;;
58414;SDS011;44210;42.706;18.344;2023-03-21T02:15:37;18.10;;;14.85;;
58414;SDS011;44210;42.706;18.344;2023-03-21T02:18:16;18.38;;;14.82;;
58414;SDS011;44210;42.706;18.344;2023-03-21T02:28:50;18.85;;;16.85;;
58414;SDS011;44210;42.706;18.344;2023-03-21T02:44:38;16.42;;;13.18;;
58414;SDS011;44210;42.706;18.344;2023-03-21T02:49:55;18.85;;;15.15;;
58414;SDS011;44210;42.706;18.344;2023-03-21T02:52:23;16.25;;;14.57;;
58414;SDS011;44210;42.706;18.344;2023-03-21T02:54:51;13.57;;;12.07;;
58414;SDS011;44210;42.706;18.344;2023-03-21T02:57:17;16.45;;;11.73;;
58414;SDS011;44210;42.706;18.344;2023-03-21T02:59:44;13.52;;;12.10;;
58414;SDS011;44210;42.706;18.344;2023-03-21T03:02:11;15.20;;;11.32;;
58414;SDS011;44210;42.706;18.344;2023-03-21T03:04:37;18.15;;;11.20;;
58414;SDS011;44210;42.706;18.344;2023-03-21T03:12:15;14.52;;;10.40;;
58414;SDS011;44210;42.706;18.344;2023-03-21T03:14:49;12.32;;;9.07;;
58414;SDS011;44210;42.706;18.344;2023-03-21T03:22:22;10.90;;;9.07;;
58414;SDS011;44210;42.706;18.344;2023-03-21T03:27:17;9.35;;;7.93;;
58414;SDS011;44210;42.706;18.344;2023-03-21T03:29:46;9.85;;;6.90;;
58414;SDS011;44210;42.706;18.344;2023-03-21T03:32:17;9.38;;;8.38;;
58414;SDS011;44210;42.706;18.344;2023-03-21T03:34:47;9.70;;;7.95;;
58414;SDS011;44210;42.706;18.344;2023-03-21T03:37:15;13.93;;;8.88;;
58414;SDS011;44210;42.706;18.344;2023-03-21T03:39:45;13.73;;;9.25;;
58414;SDS011;44210;42.706;18.344;2023-03-21T03:42:20;15.93;;;9.48;;
58414;SDS011;44210;42.706;18.344;2023-03-21T03:44:49;9.68;;;7.95;;
58414;SDS011;44210;42.706;18.344;2023-03-21T03:47:16;10.85;;;7.95;;
58414;SDS011;44210;42.706;18.344;2023-03-21T03:50:46;9.95;;;8.10;;
58414;SDS011;44210;42.706;18.344;2023-03-21T03:52:45;11.10;;;8.02;;
58414;SDS011;44210;42.706;18.344;2023-03-21T03:57:39;9.75;;;8.60;;
58414;SDS011;44210;42.706;18.344;2023-03-21T04:00:05;9.57;;;8.43;;
58414;SDS011;44210;42.706;18.344;2023-03-21T04:02:39;10.57;;;9.30;;
58414;SDS011;44210;42.706;18.344;2023-03-21T04:05:06;13.15;;;9.60;;
58414;SDS011;44210;42.706;18.344;2023-03-21T04:07:32;15.18;;;9.40;;
58414;SDS011;44210;42.706;18.344;2023-03-21T04:09:58;11.15;;;8.57;;
58414;SDS011;44210;42.706;18.344;2023-03-21T04:12:24;15.25;;;8.98;;
58414;SDS011;44210;42.706;18.344;2023-03-21T04:14:50;8.43;;;7.63;;
58414;SDS011;44210;42.706;18.344;2023-03-21T04:17:17;10.25;;;8.02;;
58414;SDS011;44210;42.706;18.344;2023-03-21T04:19:43;9.88;;;8.20;;
58414;SDS011;44210;42.706;18.344;2023-03-21T04:22:10;13.48;;;9.40;;
58414;SDS011;44210;42.706;18.344;2023-03-21T04:24:37;12.98;;;9.23;;
58414;SDS011;44210;42.706;18.344;2023-03-21T04:27:03;12.35;;;9.88;;
58414;SDS011;44210;42.706;18.344;2023-03-21T04:29:32;11.25;;;8.63;;
58414;SDS011;44210;42.706;18.344;2023-03-21T04:31:58;8.55;;;7.63;;
58414;SDS011;44210;42.706;18.344;2023-03-21T04:34:25;8.52;;;7.00;;
58414;SDS011;44210;42.706;18.344;2023-03-21T04:36:54;8.48;;;7.38;;
58414;SDS011;44210;42.706;18.344;2023-03-21T04:39:20;9.60;;;6.88;;
58414;SDS011;44210;42.706;18.344;2023-03-21T04:41:48;9.73;;;7.45;;
58414;SDS011;44210;42.706;18.344;2023-03-21T04:44:15;9.02;;;7.20;;
58414;SDS011;44210;42.706;18.344;2023-03-21T04:46:41;9.63;;;7.22;;
58414;SDS011;44210;42.706;18.344;2023-03-21T04:49:07;13.85;;;8.63;;
58414;SDS011;44210;42.706;18.344;2023-03-21T04:51:33;10.15;;;8.05;;
58414;SDS011;44210;42.706;18.344;2023-03-21T04:53:59;8.77;;;6.72;;
58414;SDS011;44210;42.706;18.344;2023-03-21T04:56:26;11.20;;;6.78;;
58414;SDS011;44210;42.706;18.344;2023-03-21T04:58:57;9.70;;;7.03;;
58414;SDS011;44210;42.706;18.344;2023-03-21T05:01:24;10.65;;;7.70;;
58414;SDS011;44210;42.706;18.344;2023-03-21T05:03:55;11.70;;;7.22;;
58414;SDS011;44210;42.706;18.344;2023-03-21T05:06:21;12.70;;;8.07;;
58414;SDS011;44210;42.706;18.344;2023-03-21T05:08:47;11.50;;;8.90;;
58414;SDS011;44210;42.706;18.344;2023-03-21T05:11:13;12.95;;;10.25;;
58414;SDS011;44210;42.706;18.344;2023-03-21T05:13:39;17.08;;;12.23;;
58414;SDS011;44210;42.706;18.344;2023-03-21T05:16:05;16.10;;;10.65;;
58414;SDS011;44210;42.706;18.344;2023-03-21T05:18:32;13.98;;;10.65;;
58414;SDS011;44210;42.706;18.344;2023-03-21T05:20:58;13.70;;;10.18;;
58414;SDS011;44210;42.706;18.344;2023-03-21T05:23:24;10.32;;;8.77;;
58414;SDS011;44210;42.706;18.344;2023-03-21T05:25:55;10.88;;;9.55;;
58414;SDS011;44210;42.706;18.344;2023-03-21T05:28:21;10.95;;;8.32;;
58414;SDS011;44210;42.706;18.344;2023-03-21T05:30:47;12.35;;;8.77;;
58414;SDS011;44210;42.706;18.344;2023-03-21T05:33:13;14.00;;;8.60;;
58414;SDS011;44210;42.706;18.344;2023-03-21T05:35:39;11.80;;;9.07;;
58414;SDS011;44210;42.706;18.344;2023-03-21T05:38:05;10.40;;;7.47;;
58414;SDS011;44210;42.706;18.344;2023-03-21T05:40:32;10.35;;;8.25;;
58414;SDS011;44210;42.706;18.344;2023-03-21T05:42:58;10.68;;;8.07;;
58414;SDS011;44210;42.706;18.344;2023-03-21T05:45:24;13.40;;;9.70;;
58414;SDS011;44210;42.706;18.344;2023-03-21T05:47:51;11.48;;;8.23;;
58414;SDS011;44210;42.706;18.344;2023-03-21T05:50:17;9.20;;;7.65;;
58414;SDS011;44210;42.706;18.344;2023-03-21T05:52:43;11.88;;;9.02;;
58414;SDS011;44210;42.706;18.344;2023-03-21T05:55:09;10.50;;;7.90;;
58414;SDS011;44210;42.706;18.344;2023-03-21T05:57:35;9.63;;;7.22;;
58414;SDS011;44210;42.706;18.344;2023-03-21T06:00:05;9.88;;;7.85;;
58414;SDS011;44210;42.706;18.344;2023-03-21T06:02:32;11.15;;;8.15;;
58414;SDS011;44210;42.706;18.344;2023-03-21T06:04:58;11.68;;;9.23;;
58414;SDS011;44210;42.706;18.344;2023-03-21T06:07:24;13.60;;;10.48;;
58414;SDS011;44210;42.706;18.344;2023-03-21T06:09:50;12.60;;;11.30;;
58414;SDS011;44210;42.706;18.344;2023-03-21T06:12:16;12.35;;;9.77;;
58414;SDS011;44210;42.706;18.344;2023-03-21T06:14:42;13.75;;;10.52;;
58414;SDS011;44210;42.706;18.344;2023-03-21T06:17:08;13.75;;;10.63;;
58414;SDS011;44210;42.706;18.344;2023-03-21T06:19:34;12.27;;;9.70;;
58414;SDS011;44210;42.706;18.344;2023-03-21T06:22:00;11.57;;;9.23;;
58414;SDS011;44210;42.706;18.344;2023-03-21T06:24:26;10.00;;;9.00;;
58414;SDS011;44210;42.706;18.344;2023-03-21T06:29:46;12.45;;;9.63;;
58414;SDS011;44210;42.706;18.344;2023-03-21T06:32:13;15.02;;;10.75;;
58414;SDS011;44210;42.706;18.344;2023-03-21T06:34:40;13.73;;;10.48;;
58414;SDS011;44210;42.706;18.344;2023-03-21T06:37:06;17.42;;;11.93;;
58414;SDS011;44210;42.706;18.344;2023-03-21T06:39:32;13.23;;;11.82;;
58414;SDS011;44210;42.706;18.344;2023-03-21T06:41:58;12.20;;;10.50;;
58414;SDS011;44210;42.706;18.344;2023-03-21T06:44:25;16.10;;;11.25;;
58414;SDS011;44210;42.706;18.344;2023-03-21T06:46:51;20.15;;;13.45;;
58414;SDS011;44210;42.706;18.344;2023-03-21T06:49:17;18.23;;;12.65;;
58414;SDS011;44210;42.706;18.344;2023-03-21T06:51:43;15.80;;;12.60;;
58414;SDS011;44210;42.706;18.344;2023-03-21T06:54:09;17.10;;;13.18;;
58414;SDS011;44210;42.706;18.344;2023-03-21T06:56:36;15.00;;;12.60;;
58414;SDS011;44210;42.706;18.344;2023-03-21T06:59:02;19.73;;;13.85;;
58414;SDS011;44210;42.706;18.344;2023-03-21T07:01:28;17.27;;;12.88;;
58414;SDS011;44210;42.706;18.344;2023-03-21T07:03:55;20.33;;;12.82;;
58414;SDS011;44210;42.706;18.344;2023-03-21T07:06:22;17.35;;;12.50;;
58414;SDS011;44210;42.706;18.344;2023-03-21T07:08:50;13.45;;;10.68;;
58414;SDS011;44210;42.706;18.344;2023-03-21T07:11:16;16.73;;;12.55;;
58414;SDS011;44210;42.706;18.344;2023-03-21T07:13:42;13.77;;;11.27;;
58414;SDS011;44210;42.706;18.344;2023-03-21T07:16:09;13.82;;;11.20;;
58414;SDS011;44210;42.706;18.344;2023-03-21T07:18:35;14.45;;;12.50;;
58414;SDS011;44210;42.706;18.344;2023-03-21T07:21:02;19.65;;;12.27;;
58414;SDS011;44210;42.706;18.344;2023-03-21T07:23:28;15.55;;;12.05;;
58414;SDS011;44210;42.706;18.344;2023-03-21T07:25:54;14.27;;;12.77;;
58414;SDS011;44210;42.706;18.344;2023-03-21T07:28:21;13.57;;;11.60;;
58414;SDS011;44210;42.706;18.344;2023-03-21T07:30:54;14.38;;;11.25;;
58414;SDS011;44210;42.706;18.344;2023-03-21T07:33:21;13.45;;;11.55;;
58414;SDS011;44210;42.706;18.344;2023-03-21T07:35:50;15.60;;;12.30;;
58414;SDS011;44210;42.706;18.344;2023-03-21T07:38:17;16.77;;;11.70;;
58414;SDS011;44210;42.706;18.344;2023-03-21T07:40:44;17.67;;;11.48;;
58414;SDS011;44210;42.706;18.344;2023-03-21T07:43:11;17.60;;;13.13;;
58414;SDS011;44210;42.706;18.344;2023-03-21T07:45:37;18.48;;;14.15;;
58414;SDS011;44210;42.706;18.344;2023-03-21T07:48:03;17.38;;;13.82;;
58414;SDS011;44210;42.706;18.344;2023-03-21T07:50:29;19.00;;;14.02;;
58414;SDS011;44210;42.706;18.344;2023-03-21T07:52:55;17.55;;;12.10;;
58414;SDS011;44210;42.706;18.344;2023-03-21T07:55:21;16.83;;;11.77;;
58414;SDS011;44210;42.706;18.344;2023-03-21T07:57:50;19.85;;;12.80;;
58414;SDS011;44210;42.706;18.344;2023-03-21T08:00:17;13.60;;;11.55;;
58414;SDS011;44210;42.706;18.344;2023-03-21T08:02:53;15.45;;;11.20;;
58414;SDS011;44210;42.706;18.344;2023-03-21T08:05:24;15.88;;;11.32;;
58414;SDS011;44210;42.706;18.344;2023-03-21T08:07:50;16.98;;;11.60;;
58414;SDS011;44210;42.706;18.344;2023-03-21T08:10:17;15.88;;;10.98;;
58414;SDS011;44210;42.706;18.344;2023-03-21T08:12:43;14.52;;;10.73;;
58414;SDS011;44210;42.706;18.344;2023-03-21T08:15:10;23.75;;;12.15;;
58414;SDS011;44210;42.706;18.344;2023-03-21T08:17:36;10.27;;;9.15;;
58414;SDS011;44210;42.706;18.344;2023-03-21T08:20:07;13.68;;;7.82;;
58414;SDS011;44210;42.706;18.344;2023-03-21T08:22:34;10.95;;;6.28;;
58414;SDS011;44210;42.706;18.344;2023-03-21T08:25:02;8.23;;;7.03;;
58414;SDS011;44210;42.706;18.344;2023-03-21T08:27:29;11.57;;;9.35;;
58414;SDS011;44210;42.706;18.344;2023-03-21T08:29:55;14.57;;;8.77;;
58414;SDS011;44210;42.706;18.344;2023-03-21T08:32:21;16.70;;;11.20;;
58414;SDS011;44210;42.706;18.344;2023-03-21T08:34:53;15.57;;;10.30;;
58414;SDS011;44210;42.706;18.344;2023-03-21T08:37:19;16.38;;;10.55;;
58414;SDS011;44210;42.706;18.344;2023-03-21T08:39:46;14.35;;;8.82;;
58414;SDS011;44210;42.706;18.344;2023-03-21T08:42:12;9.60;;;7.72;;
58414;SDS011;44210;42.706;18.344;2023-03-21T08:44:38;15.90;;;9.32;;
58414;SDS011;44210;42.706;18.344;2023-03-21T08:47:05;16.83;;;9.65;;
58414;SDS011;44210;42.706;18.344;2023-03-21T08:49:33;13.18;;;10.10;;
58414;SDS011;44210;42.706;18.344;2023-03-21T08:51:59;12.73;;;10.23;;
58414;SDS011;44210;42.706;18.344;2023-03-21T08:54:25;15.00;;;9.88;;
58414;SDS011;44210;42.706;18.344;2023-03-21T08:56:51;14.70;;;10.10;;
58414;SDS011;44210;42.706;18.344;2023-03-21T08:59:17;12.73;;;9.40;;
58414;SDS011;44210;42.706;18.344;2023-03-21T09:01:44;16.90;;;9.55;;
58414;SDS011;44210;42.706;18.344;2023-03-21T09:04:11;11.70;;;10.13;;
58414;SDS011;44210;42.706;18.344;2023-03-21T09:06:37;9.57;;;8.55;;
58414;SDS011;44210;42.706;18.344;2023-03-21T09:09:05;13.10;;;9.30;;
58414;SDS011;44210;42.706;18.344;2023-03-21T09:11:32;14.63;;;9.50;;
58414;SDS011;44210;42.706;18.344;2023-03-21T09:13:58;13.20;;;9.35;;
58414;SDS011;44210;42.706;18.344;2023-03-21T09:16:25;14.68;;;8.57;;
58414;SDS011;44210;42.706;18.344;2023-03-21T09:18:51;16.65;;;9.55;;
58414;SDS011;44210;42.706;18.344;2023-03-21T09:21:21;11.80;;;8.98;;
58414;SDS011;44210;42.706;18.344;2023-03-21T09:23:49;13.00;;;8.57;;
58414;SDS011;44210;42.706;18.344;2023-03-21T09:26:17;15.63;;;8.60;;
58414;SDS011;44210;42.706;18.344;2023-03-21T09:28:43;10.45;;;8.02;;
58414;SDS011;44210;42.706;18.344;2023-03-21T09:31:13;11.85;;;8.05;;
58414;SDS011;44210;42.706;18.344;2023-03-21T09:33:40;12.52;;;8.77;;
58414;SDS011;44210;42.706;18.344;2023-03-21T09:36:07;9.35;;;7.63;;
58414;SDS011;44210;42.706;18.344;2023-03-21T09:38:38;12.13;;;7.68;;
58414;SDS011;44210;42.706;18.344;2023-03-21T09:41:19;9.70;;;7.72;;
58414;SDS011;44210;42.706;18.344;2023-03-21T09:47:08;10.77;;;7.43;;
58414;SDS011;44210;42.706;18.344;2023-03-21T09:49:29;8.32;;;6.75;;
58414;SDS011;44210;42.706;18.344;2023-03-21T09:51:57;7.05;;;6.35;;
58414;SDS011;44210;42.706;18.344;2023-03-21T09:56:53;9.30;;;6.25;;
58414;SDS011;44210;42.706;18.344;2023-03-21T09:59:28;9.52;;;6.78;;
58414;SDS011;44210;42.706;18.344;2023-03-21T10:01:57;8.20;;;6.68;;
58414;SDS011;44210;42.706;18.344;2023-03-21T10:04:24;9.05;;;6.47;;
58414;SDS011;44210;42.706;18.344;2023-03-21T10:07:00;8.00;;;6.05;;
58414;SDS011;44210;42.706;18.344;2023-03-21T10:09:28;10.55;;;6.95;;
58414;SDS011;44210;42.706;18.344;2023-03-21T10:12:07;22.10;;;10.57;;
58414;SDS011;44210;42.706;18.344;2023-03-21T10:14:45;9.32;;;6.30;;
58414;SDS011;44210;42.706;18.344;2023-03-21T10:19:41;13.43;;;8.52;;
58414;SDS011;44210;42.706;18.344;2023-03-21T10:22:10;12.25;;;7.43;;
58414;SDS011;44210;42.706;18.344;2023-03-21T10:24:36;15.95;;;7.78;;
58414;SDS011;44210;42.706;18.344;2023-03-21T10:27:03;11.50;;;6.85;;
58414;SDS011;44210;42.706;18.344;2023-03-21T10:29:31;14.05;;;7.38;;
58414;SDS011;44210;42.706;18.344;2023-03-21T10:32:00;13.18;;;7.32;;
58414;SDS011;44210;42.706;18.344;2023-03-21T10:34:32;8.88;;;6.47;;
58414;SDS011;44210;42.706;18.344;2023-03-21T10:37:01;8.18;;;5.90;;
58414;SDS011;44210;42.706;18.344;2023-03-21T10:39:35;8.18;;;6.50;;
58414;SDS011;44210;42.706;18.344;2023-03-21T10:42:02;11.55;;;5.78;;
58414;SDS011;44210;42.706;18.344;2023-03-21T10:44:32;8.85;;;5.00;;
58414;SDS011;44210;42.706;18.344;2023-03-21T10:47:08;6.35;;;5.00;;
58414;SDS011;44210;42.706;18.344;2023-03-21T10:49:37;6.97;;;5.10;;
58414;SDS011;44210;42.706;18.344;2023-03-21T10:52:04;11.43;;;5.28;;
58414;SDS011;44210;42.706;18.344;2023-03-21T10:54:32;9.25;;;4.93;;
58414;SDS011;44210;42.706;18.344;2023-03-21T10:57:01;7.15;;;4.90;;
58414;SDS011;44210;42.706;18.344;2023-03-21T10:59:33;8.63;;;5.47;;
58414;SDS011;44210;42.706;18.344;2023-03-21T11:02:01;7.80;;;5.72;;
58414;SDS011;44210;42.706;18.344;2023-03-21T11:04:28;10.00;;;5.10;;
58414;SDS011;44210;42.706;18.344;2023-03-21T11:06:57;7.32;;;4.88;;
58414;SDS011;44210;42.706;18.344;2023-03-21T11:09:26;4.43;;;3.78;;
58414;SDS011;44210;42.706;18.344;2023-03-21T11:12:10;7.82;;;4.35;;
58414;SDS011;44210;42.706;18.344;2023-03-21T11:14:46;6.53;;;4.53;;
58414;SDS011;44210;42.706;18.344;2023-03-21T11:19:49;7.88;;;4.45;;
58414;SDS011;44210;42.706;18.344;2023-03-21T11:22:16;6.90;;;4.65;;
58414;SDS011;44210;42.706;18.344;2023-03-21T11:24:45;8.13;;;5.28;;
58414;SDS011;44210;42.706;18.344;2023-03-21T11:27:12;6.82;;;5.05;;
58414;SDS011;44210;42.706;18.344;2023-03-21T11:29:38;8.20;;;4.35;;
58414;SDS011;44210;42.706;18.344;2023-03-21T11:32:10;7.30;;;4.32;;
58414;SDS011;44210;42.706;18.344;2023-03-21T11:37:16;9.02;;;4.88;;
58414;SDS011;44210;42.706;18.344;2023-03-21T11:39:43;9.70;;;5.47;;
58414;SDS011;44210;42.706;18.344;2023-03-21T11:42:29;12.00;;;4.50;;
58414;SDS011;44210;42.706;18.344;2023-03-21T11:45:00;7.13;;;4.82;;
58414;SDS011;44210;42.706;18.344;2023-03-21T11:47:27;5.55;;;4.30;;
58414;SDS011;44210;42.706;18.344;2023-03-21T11:49:53;5.80;;;3.83;;
58414;SDS011;44210;42.706;18.344;2023-03-21T11:52:40;7.93;;;4.93;;
58414;SDS011;44210;42.706;18.344;2023-03-21T12:00:26;7.38;;;5.30;;
58414;SDS011;44210;42.706;18.344;2023-03-21T12:03:03;11.13;;;5.47;;
58414;SDS011;44210;42.706;18.344;2023-03-21T12:05:31;7.97;;;4.68;;
58414;SDS011;44210;42.706;18.344;2023-03-21T12:10:39;10.90;;;5.18;;
58414;SDS011;44210;42.706;18.344;2023-03-21T12:21:04;7.60;;;4.70;;
58414;SDS011;44210;42.706;18.344;2023-03-21T12:26:27;6.53;;;4.38;;
58414;SDS011;44210;42.706;18.344;2023-03-21T12:44:59;5.88;;;3.97;;
58414;SDS011;44210;42.706;18.344;2023-03-21T12:47:26;5.72;;;4.10;;
58414;SDS011;44210;42.706;18.344;2023-03-21T12:50:11;5.25;;;4.00;;
58414;SDS011;44210;42.706;18.344;2023-03-21T12:52:39;7.18;;;4.00;;
58414;SDS011;44210;42.706;18.344;2023-03-21T12:55:12;4.63;;;2.97;;
58414;SDS011;44210;42.706;18.344;2023-03-21T12:57:40;5.88;;;3.38;;
58414;SDS011;44210;42.706;18.344;2023-03-21T13:00:20;4.78;;;3.03;;
58414;SDS011;44210;42.706;18.344;2023-03-21T13:02:57;7.85;;;3.15;;
58414;SDS011;44210;42.706;18.344;2023-03-21T13:10:39;4.60;;;3.00;;
58414;SDS011;44210;42.706;18.344;2023-03-21T13:18:05;4.10;;;3.03;;
58414;SDS011;44210;42.706;18.344;2023-03-21T13:20:47;8.07;;;3.40;;
58414;SDS011;44210;42.706;18.344;2023-03-21T13:23:14;5.57;;;2.92;;
58414;SDS011;44210;42.706;18.344;2023-03-21T13:25:46;4.68;;;2.83;;
58414;SDS011;44210;42.706;18.344;2023-03-21T13:28:32;7.55;;;3.22;;
58414;SDS011;44210;42.706;18.344;2023-03-21T13:31:18;6.03;;;2.97;;
58414;SDS011;44210;42.706;18.344;2023-03-21T13:33:46;7.50;;;3.50;;
58414;SDS011;44210;42.706;18.344;2023-03-21T13:36:14;8.60;;;2.88;;
58414;SDS011;44210;42.706;18.344;2023-03-21T13:38:40;7.95;;;3.38;;
58414;SDS011;44210;42.706;18.344;2023-03-21T13:41:18;11.18;;;3.30;;
58414;SDS011;44210;42.706;18.344;2023-03-21T13:59:12;5.72;;;2.47;;
58414;SDS011;44210;42.706;18.344;2023-03-21T14:01:57;7.75;;;2.75;;
58414;SDS011;44210;42.706;18.344;2023-03-21T14:04:28;6.30;;;2.67;;
58414;SDS011;44210;42.706;18.344;2023-03-21T14:06:55;3.88;;;2.63;;
58414;SDS011;44210;42.706;18.344;2023-03-21T14:09:32;8.02;;;3.08;;
58414;SDS011;44210;42.706;18.344;2023-03-21T14:12:00;4.50;;;2.90;;
58414;SDS011;44210;42.706;18.344;2023-03-21T14:14:32;4.38;;;2.70;;
58414;SDS011;44210;42.706;18.344;2023-03-21T14:17:01;5.72;;;2.83;;
58414;SDS011;44210;42.706;18.344;2023-03-21T14:19:28;6.00;;;2.78;;
58414;SDS011;44210;42.706;18.344;2023-03-21T14:21:55;5.85;;;3.00;;
58414;SDS011;44210;42.706;18.344;2023-03-21T14:24:21;6.03;;;3.30;;
58414;SDS011;44210;42.706;18.344;2023-03-21T14:26:48;7.55;;;4.05;;
58414;SDS011;44210;42.706;18.344;2023-03-21T14:29:19;7.95;;;3.70;;
58414;SDS011;44210;42.706;18.344;2023-03-21T14:31:46;4.57;;;2.83;;
58414;SDS011;44210;42.706;18.344;2023-03-21T14:34:13;9.60;;;2.92;;
58414;SDS011;44210;42.706;18.344;2023-03-21T14:36:40;5.15;;;2.70;;
58414;SDS011;44210;42.706;18.344;2023-03-21T14:39:10;3.97;;;2.53;;
58414;SDS011;44210;42.706;18.344;2023-03-21T14:41:47;6.10;;;2.80;;
58414;SDS011;44210;42.706;18.344;2023-03-21T14:44:21;5.50;;;3.00;;
58414;SDS011;44210;42.706;18.344;2023-03-21T14:49:38;5.03;;;2.45;;
58414;SDS011;44210;42.706;18.344;2023-03-21T14:52:22;8.05;;;2.92;;
58414;SDS011;44210;42.706;18.344;2023-03-21T14:54:48;4.75;;;2.90;;
58414;SDS011;44210;42.706;18.344;2023-03-21T14:57:18;6.88;;;2.72;;
58414;SDS011;44210;42.706;18.344;2023-03-21T14:59:46;6.53;;;3.30;;
58414;SDS011;44210;42.706;18.344;2023-03-21T15:02:17;6.40;;;3.63;;
58414;SDS011;44210;42.706;18.344;2023-03-21T15:04:54;8.75;;;3.63;;
58414;SDS011;44210;42.706;18.344;2023-03-21T15:07:29;7.93;;;3.40;;
58414;SDS011;44210;42.706;18.344;2023-03-21T15:09:57;4.53;;;3.28;;
58414;SDS011;44210;42.706;18.344;2023-03-21T15:12:24;6.95;;;2.90;;
58414;SDS011;44210;42.706;18.344;2023-03-21T15:14:50;4.93;;;2.58;;
58414;SDS011;44210;42.706;18.344;2023-03-21T15:17:17;8.38;;;3.40;;
58414;SDS011;44210;42.706;18.344;2023-03-21T15:19:43;5.18;;;2.60;;
58414;SDS011;44210;42.706;18.344;2023-03-21T15:22:29;6.53;;;2.67;;
58414;SDS011;44210;42.706;18.344;2023-03-21T15:24:58;4.72;;;2.58;;
58414;SDS011;44210;42.706;18.344;2023-03-21T15:27:25;5.93;;;2.80;;
58414;SDS011;44210;42.706;18.344;2023-03-21T15:29:52;5.88;;;3.33;;
58414;SDS011;44210;42.706;18.344;2023-03-21T15:32:19;10.10;;;4.63;;
58414;SDS011;44210;42.706;18.344;2023-03-21T15:34:47;10.00;;;4.50;;
58414;SDS011;44210;42.706;18.344;2023-03-21T15:37:19;5.88;;;3.30;;
58414;SDS011;44210;42.706;18.344;2023-03-21T15:39:46;5.43;;;3.20;;
58414;SDS011;44210;42.706;18.344;2023-03-21T15:42:27;5.30;;;2.85;;
58414;SDS011;44210;42.706;18.344;2023-03-21T15:44:54;6.07;;;2.72;;
58414;SDS011;44210;42.706;18.344;2023-03-21T15:47:40;4.78;;;2.40;;
58414;SDS011;44210;42.706;18.344;2023-03-21T15:50:08;7.32;;;3.45;;
58414;SDS011;44210;42.706;18.344;2023-03-21T15:52:35;8.45;;;4.03;;
58414;SDS011;44210;42.706;18.344;2023-03-21T15:55:02;8.75;;;3.90;;
58414;SDS011;44210;42.706;18.344;2023-03-21T15:57:35;5.32;;;3.45;;
58414;SDS011;44210;42.706;18.344;2023-03-21T16:00:22;6.75;;;3.50;;
58414;SDS011;44210;42.706;18.344;2023-03-21T16:02:54;4.30;;;3.40;;
58414;SDS011;44210;42.706;18.344;2023-03-21T16:05:25;11.70;;;3.55;;
58414;SDS011;44210;42.706;18.344;2023-03-21T16:07:52;9.00;;;4.38;;
58414;SDS011;44210;42.706;18.344;2023-03-21T16:12:51;9.45;;;2.60;;
58414;SDS011;44210;42.706;18.344;2023-03-21T16:15:18;6.70;;;3.50;;
58414;SDS011;44210;42.706;18.344;2023-03-21T16:17:47;7.05;;;4.20;;
58414;SDS011;44210;42.706;18.344;2023-03-21T16:20:19;8.18;;;4.25;;
58414;SDS011;44210;42.706;18.344;2023-03-21T16:22:46;6.65;;;3.78;;
58414;SDS011;44210;42.706;18.344;2023-03-21T16:25:12;6.50;;;4.22;;
58414;SDS011;44210;42.706;18.344;2023-03-21T16:27:38;7.57;;;4.72;;
58414;SDS011;44210;42.706;18.344;2023-03-21T16:30:05;7.40;;;5.13;;
58414;SDS011;44210;42.706;18.344;2023-03-21T16:32:32;11.63;;;4.82;;